Time;durP1;ratioP1;P1;durP2;ratioP2;P2;SDS_P1;SDS_P2;PMS_P1;PMS_P2;Temp;Humidity;BMP_temperature;BMP_pressure;BME280_temperature;BME280_humidity;BME280_pressure;Samples;Min_cycle;Max_cycle;Signal;HPM_P1;HPM_P2
2022/10/19 00:01:37;;;;;;;;;;;;;;;14.65;82.32;101518.91;5057622;28;19917;-82
2022/10/19 00:04:21;;;;;;;;;;;;;;;14.68;82.33;101512.00;5049126;28;19921;-82
2022/10/19 00:07:06;;;;;;;;;;;;;;;14.65;82.45;101507.94;5079639;28;19917;-80
2022/10/19 00:09:50;;;;;;;;;;;;;;;14.68;82.28;101512.75;5061691;28;19916;-81
2022/10/19 00:12:35;;;;;;;;;;;;;;;14.73;82.13;101498.91;5062332;28;20364;-80
2022/10/19 00:15:19;;;;;;;;;;;;;;;14.70;81.90;101496.03;5080731;28;19917;-81
2022/10/19 00:18:03;;;;;;;;;;;;;;;14.68;81.85;101496.34;5061015;28;19921;-81
2022/10/19 00:20:48;;;;;;;;;;;;;;;14.69;81.65;101491.66;5059693;28;19916;-81
2022/10/19 00:23:32;;;;;;;;;;;;;;;14.62;81.76;101491.38;5059694;28;19917;-80
2022/10/19 00:26:17;;;;;;;;;;;;;;;14.60;81.44;101493.63;5059556;28;19920;-81
2022/10/19 00:29:02;;;;;;;;;;;;;;;14.41;81.97;101485.75;5060378;28;20304;-81
2022/10/19 00:31:48;;;;;;;;;;;;;;;14.45;81.60;101481.22;5059241;28;19917;-80
2022/10/19 00:34:32;;;;;;;;;;;;;;;14.35;81.97;101484.25;5059857;28;19917;-81
2022/10/19 00:37:16;;;;;;;;;;;;;;;14.33;82.34;101495.50;5059922;28;20376;-81
2022/10/19 00:40:01;;;;;;;;;;;;;;;14.45;81.73;101487.50;5075418;28;19917;-81
2022/10/19 00:42:46;;;;;;;;;;;;;;;14.33;82.59;101479.09;5060007;28;20380;-82
2022/10/19 00:45:30;;;;;;;;;;;;;;;14.36;82.66;101483.13;5059502;28;20307;-82
2022/10/19 00:48:21;;;;;;;;;;;;;;;14.32;83.02;101482.97;5060568;28;19917;-82
2022/10/19 00:51:06;;;;;;;;;;;;;;;14.37;82.56;101485.59;5059402;28;19917;-82
2022/10/19 00:53:50;;;;;;;;;;;;;;;14.31;82.60;101478.63;5062553;28;19917;-81
2022/10/19 00:56:37;;;;;;;;;;;;;;;14.21;83.20;101475.41;5060577;28;19917;-81
2022/10/19 00:59:23;;;;;;;;;;;;;;;14.07;82.92;101486.47;5059677;28;19917;-81
2022/10/19 01:02:09;;;;;;;;;;;;;;;14.13;82.93;101480.53;5061968;28;19917;-81
2022/10/19 01:04:53;;;;;;;;;;;;;;;14.09;83.41;101476.03;5059166;28;19925;-81
2022/10/19 01:07:38;;;;;;;;;;;;;;;14.01;83.79;101476.84;5058990;28;19917;-82
2022/10/19 01:10:26;;;;;;;;;;;;;;;14.00;83.09;101473.28;5060435;28;19917;-82
2022/10/19 01:13:11;;;;;;;;;;;;;;;14.10;82.79;101470.25;5059671;28;19916;-81
2022/10/19 01:16:02;;;;;;;;;;;;;;;13.99;83.16;101477.16;5059702;28;19917;-82
2022/10/19 01:18:56;;;;;;;;;;;;;;;14.04;83.30;101470.72;5061839;28;20387;-82
2022/10/19 01:21:49;;;;;;;;;;;;;;;14.24;82.62;101469.28;5059389;28;19917;-81
2022/10/19 01:24:55;;;;;;;;;;;;;;;14.11;82.85;101465.59;5059460;28;19921;-82
2022/10/19 01:27:43;;;;;;;;;;;;;;;14.19;82.73;101458.50;5040774;28;19918;-81
2022/10/19 01:30:49;;;;;;;;;;;;;;;14.17;82.23;101456.06;5039486;28;19917;-81
2022/10/19 01:33:40;;;;;;;;;;;;;;;14.19;82.87;101459.31;5038081;28;19917;-80
2022/10/19 01:36:32;;;;;;;;;;;;;;;14.27;81.68;101441.31;5058912;28;19925;-80
2022/10/19 01:39:36;;;;;;;;;;;;;;;14.38;79.97;101443.41;5061244;28;20403;-80
2022/10/19 01:42:24;;;;;;;;;;;;;;;14.37;80.56;101441.81;5057973;28;19917;-81
2022/10/19 01:45:08;;;;;;;;;;;;;;;14.33;80.81;101445.47;5062376;28;19921;-80
2022/10/19 01:47:56;;;;;;;;;;;;;;;14.17;81.35;101436.94;5074807;28;19917;-80
2022/10/19 01:50:43;;;;;;;;;;;;;;;13.96;81.67;101444.19;5072156;28;20299;-81
2022/10/19 01:53:31;;;;;;;;;;;;;;;14.10;81.31;101436.63;5077152;28;19917;-81
2022/10/19 01:56:17;;;;;;;;;;;;;;;13.98;81.36;101433.69;5089205;28;20387;-81
2022/10/19 01:59:04;;;;;;;;;;;;;;;13.88;81.47;101434.00;5052195;28;19921;-80
2022/10/19 02:01:50;;;;;;;;;;;;;;;13.85;82.15;101440.94;5053885;28;19917;-80
2022/10/19 02:04:37;;;;;;;;;;;;;;;13.81;82.09;101433.69;5058893;28;20186;-81
2022/10/19 02:07:23;;;;;;;;;;;;;;;13.77;82.29;101440.91;5058296;28;19917;-80
2022/10/19 02:10:07;;;;;;;;;;;;;;;13.80;81.49;101432.88;5058675;28;20311;-80
2022/10/19 02:12:53;;;;;;;;;;;;;;;13.53;81.29;101433.94;5059527;28;20011;-80
2022/10/19 02:15:39;;;;;;;;;;;;;;;13.53;81.75;101433.94;5057807;28;19917;-80
2022/10/19 02:18:27;;;;;;;;;;;;;;;13.28;83.38;101426.47;5057516;28;19916;-81
2022/10/19 02:21:12;;;;;;;;;;;;;;;13.45;83.20;101428.47;5057246;28;19917;-81
2022/10/19 02:23:56;;;;;;;;;;;;;;;13.53;82.58;101428.47;5057399;28;19931;-81
2022/10/19 02:26:41;;;;;;;;;;;;;;;13.62;81.72;101420.28;5057891;28;19921;-81
2022/10/19 02:29:26;;;;;;;;;;;;;;;13.57;81.41;101415.78;5059514;28;19921;-81
2022/10/19 02:32:11;;;;;;;;;;;;;;;13.30;81.98;101409.78;5072012;28;19916;-80
2022/10/19 02:34:56;;;;;;;;;;;;;;;13.36;82.13;101411.25;5057143;28;19917;-81
2022/10/19 02:37:41;;;;;;;;;;;;;;;13.33;82.89;101420.88;5057902;28;20315;-82
2022/10/19 02:40:26;;;;;;;;;;;;;;;13.37;83.54;101405.44;5057329;28;19923;-80
2022/10/19 02:43:18;;;;;;;;;;;;;;;13.39;83.36;101411.41;5090690;28;19917;-80
2022/10/19 02:46:08;;;;;;;;;;;;;;;13.49;82.64;101408.38;5060457;28;19920;-81
2022/10/19 02:48:54;;;;;;;;;;;;;;;13.39;82.82;101405.13;5056874;28;19917;-81
2022/10/19 02:51:53;;;;;;;;;;;;;;;13.32;83.05;101402.06;5101381;23;20431;-81
2022/10/19 02:54:38;;;;;;;;;;;;;;;13.16;83.57;101407.13;5092101;28;19920;-80
2022/10/19 02:57:24;;;;;;;;;;;;;;;13.16;84.20;101401.66;5076127;28;20072;-80
2022/10/19 03:00:09;;;;;;;;;;;;;;;13.30;83.79;101405.13;5074940;28;20383;-81
2022/10/19 03:02:53;;;;;;;;;;;;;;;13.11;84.75;101405.34;5079792;28;19917;-81
2022/10/19 03:05:38;;;;;;;;;;;;;;;13.24;83.39;101407.19;5079187;28;20384;-81
2022/10/19 03:08:22;;;;;;;;;;;;;;;13.27;83.08;101397.53;5070640;28;19917;-82
2022/10/19 03:11:07;;;;;;;;;;;;;;;13.37;81.86;101402.72;5076838;28;19916;-82
2022/10/19 03:13:52;;;;;;;;;;;;;;;13.42;82.28;101396.28;5080119;28;19949;-82
2022/10/19 03:16:36;;;;;;;;;;;;;;;13.31;83.24;101403.97;5076412;28;19916;-81
2022/10/19 03:19:20;;;;;;;;;;;;;;;13.40;83.17;101390.38;5076100;28;19916;-83
2022/10/19 03:22:05;;;;;;;;;;;;;;;13.57;82.05;101395.84;5064695;28;19921;-82
2022/10/19 03:24:50;;;;;;;;;;;;;;;13.68;81.32;101397.97;5074469;28;19917;-81
2022/10/19 03:27:34;;;;;;;;;;;;;;;13.64;81.56;101390.72;5069564;28;19917;-82
2022/10/19 03:30:19;;;;;;;;;;;;;;;13.70;82.22;101397.66;5068304;28;19917;-82
2022/10/19 03:33:03;;;;;;;;;;;;;;;13.63;82.03;101384.47;5057063;28;19916;-82
2022/10/19 03:35:48;;;;;;;;;;;;;;;13.48;81.43;101390.38;5058858;28;19917;-82
2022/10/19 03:38:32;;;;;;;;;;;;;;;13.14;82.24;101403.94;5064969;28;19920;-82
2022/10/19 03:41:17;;;;;;;;;;;;;;;12.86;83.35;101400.53;5057113;28;20384;-81
2022/10/19 03:44:02;;;;;;;;;;;;;;;13.06;82.16;101400.00;5061117;28;20271;-82
2022/10/19 03:46:47;;;;;;;;;;;;;;;13.19;81.97;101401.06;5076950;28;20391;-81
2022/10/19 03:49:32;;;;;;;;;;;;;;;13.05;83.01;101398.41;5076549;28;19920;-82
2022/10/19 03:52:17;;;;;;;;;;;;;;;13.05;83.48;101394.88;5075621;28;19917;-82
2022/10/19 03:55:01;;;;;;;;;;;;;;;13.01;84.22;101404.78;5072962;28;19920;-82
2022/10/19 03:57:46;;;;;;;;;;;;;;;13.16;83.32;101407.94;5072827;28;19916;-82
2022/10/19 04:00:30;;;;;;;;;;;;;;;13.19;83.22;101401.88;5071879;28;19916;-82
2022/10/19 04:03:15;;;;;;;;;;;;;;;13.31;82.30;101395.78;5080200;28;20411;-81
2022/10/19 04:06:05;;;;;;;;;;;;;;;13.18;82.62;101402.19;5075865;28;19920;-82
2022/10/19 04:08:49;;;;;;;;;;;;;;;13.23;81.14;101402.84;5076791;28;19916;-82
2022/10/19 04:11:34;;;;;;;;;;;;;;;12.89;83.18;101401.84;5064950;28;19917;-81
2022/10/19 04:14:19;;;;;;;;;;;;;;;12.82;83.68;101396.84;5073662;28;19917;-81
2022/10/19 04:17:04;;;;;;;;;;;;;;;12.81;83.78;101408.88;5077416;28;19916;-82
2022/10/19 04:19:48;;;;;;;;;;;;;;;12.98;83.19;101403.50;5080210;28;20276;-81
2022/10/19 04:22:33;;;;;;;;;;;;;;;13.09;82.43;101398.56;5077672;28;19917;-81
2022/10/19 04:25:17;;;;;;;;;;;;;;;12.99;83.19;101396.13;5081017;28;19932;-81
2022/10/19 04:28:02;;;;;;;;;;;;;;;12.93;84.55;101397.38;5081143;28;19921;-81
2022/10/19 04:30:46;;;;;;;;;;;;;;;13.02;85.17;101396.28;5084236;28;20299;-81
2022/10/19 04:33:32;;;;;;;;;;;;;;;12.90;85.11;101404.25;5081851;28;19916;-81
2022/10/19 04:36:17;;;;;;;;;;;;;;;12.78;85.01;101401.31;5078478;28;20307;-81
2022/10/19 04:39:02;;;;;;;;;;;;;;;12.67;84.87;101394.50;5082494;28;19916;-81
2022/10/19 04:41:46;;;;;;;;;;;;;;;12.59;84.31;101395.28;5074021;28;19916;-81
2022/10/19 04:44:31;;;;;;;;;;;;;;;12.67;84.53;101394.50;5078872;28;19916;-81
2022/10/19 04:47:15;;;;;;;;;;;;;;;12.72;84.40;101395.19;5079889;28;19920;-82
2022/10/19 04:50:00;;;;;;;;;;;;;;;12.82;84.67;101397.66;5080723;28;19916;-81
2022/10/19 04:52:44;;;;;;;;;;;;;;;12.94;83.60;101394.34;5073948;28;19916;-81
2022/10/19 04:55:29;;;;;;;;;;;;;;;12.95;82.65;101395.16;5067647;28;19917;-81
2022/10/19 04:58:13;;;;;;;;;;;;;;;12.98;82.69;101394.50;5073870;28;19917;-84
2022/10/19 05:00:57;;;;;;;;;;;;;;;13.08;82.70;101392.31;5082259;28;19916;-83
2022/10/19 05:03:42;;;;;;;;;;;;;;;13.31;81.46;101387.59;5067207;28;20303;-78
2022/10/19 05:06:27;;;;;;;;;;;;;;;13.30;81.46;101399.66;5067122;28;19920;-79
2022/10/19 05:09:12;;;;;;;;;;;;;;;13.20;81.51;101397.22;5062672;28;19916;-78
2022/10/19 05:11:57;;;;;;;;;;;;;;;13.27;82.32;101398.34;5066501;28;19916;-79
2022/10/19 05:14:41;;;;;;;;;;;;;;;13.39;81.92;101399.69;5074199;28;19917;-80
2022/10/19 05:17:28;;;;;;;;;;;;;;;13.46;80.81;101406.28;5073108;28;19917;-79
2022/10/19 05:20:13;;;;;;;;;;;;;;;12.79;81.10;101406.47;5073037;28;19916;-80
2022/10/19 05:22:57;;;;;;;;;;;;;;;12.80;81.18;101402.59;5080029;28;19920;-79
2022/10/19 05:25:42;;;;;;;;;;;;;;;12.54;82.47;101406.31;5081142;28;20430;-82
2022/10/19 05:28:27;;;;;;;;;;;;;;;12.49;83.23;101399.06;5078593;28;19917;-83
2022/10/19 05:31:13;;;;;;;;;;;;;;;12.46;83.96;101396.94;5078289;28;20362;-81
2022/10/19 05:33:58;;;;;;;;;;;;;;;12.51;84.21;101394.09;5079170;28;20380;-81
2022/10/19 05:36:43;;;;;;;;;;;;;;;12.63;83.65;101394.34;5069302;28;19920;-83
2022/10/19 05:39:27;;;;;;;;;;;;;;;12.86;81.50;101406.00;5079360;28;19916;-82
2022/10/19 05:42:12;;;;;;;;;;;;;;;12.96;80.36;101404.94;5078102;28;19916;-82
2022/10/19 05:44:56;;;;;;;;;;;;;;;13.17;78.84;101400.56;5082142;28;19917;-82
2022/10/19 05:47:41;;;;;;;;;;;;;;;13.25;78.65;101411.53;5078900;28;20303;-82
2022/10/19 05:50:25;;;;;;;;;;;;;;;13.26;78.71;101396.72;5078389;28;19916;-82
2022/10/19 05:53:10;;;;;;;;;;;;;;;13.33;78.30;101404.47;5080771;28;20383;-82
2022/10/19 05:55:54;;;;;;;;;;;;;;;13.21;78.40;101407.00;5078574;28;19916;-82
2022/10/19 05:58:39;;;;;;;;;;;;;;;13.37;79.14;101410.09;5081722;28;19917;-83
2022/10/19 06:01:24;;;;;;;;;;;;;;;13.34;79.27;101408.00;5067461;28;19916;-82
2022/10/19 06:04:09;;;;;;;;;;;;;;;13.48;79.39;101403.22;5070005;28;19916;-82
2022/10/19 06:06:54;;;;;;;;;;;;;;;13.51;79.22;101403.38;5079756;28;19921;-82
2022/10/19 06:09:38;;;;;;;;;;;;;;;13.76;78.53;101415.53;5074261;28;19917;-82
2022/10/19 06:12:23;;;;;;;;;;;;;;;13.62;78.39;101417.56;5070619;28;19920;-82
2022/10/19 06:15:07;;;;;;;;;;;;;;;13.52;79.49;101424.13;5074565;28;19916;-82
2022/10/19 06:17:52;;;;;;;;;;;;;;;13.82;78.21;101416.16;5081133;28;19920;-82
2022/10/19 06:20:38;;;;;;;;;;;;;;;14.12;77.00;101426.16;5078771;28;19916;-82
2022/10/19 06:23:23;;;;;;;;;;;;;;;14.27;76.54;101430.34;5066582;28;19921;-82
2022/10/19 06:26:09;;;;;;;;;;;;;;;14.13;76.38;101438.69;5058127;28;19921;-82
2022/10/19 06:28:54;;;;;;;;;;;;;;;14.31;75.46;101432.13;5068319;28;19916;-82
2022/10/19 06:31:39;;;;;;;;;;;;;;;14.11;76.26;101435.50;5058240;28;19921;-83
2022/10/19 06:34:23;;;;;;;;;;;;;;;13.95;77.78;101437.09;5067380;28;19916;-82
2022/10/19 06:37:08;;;;;;;;;;;;;;;14.03;78.20;101439.00;5061526;28;19917;-82
2022/10/19 06:39:52;;;;;;;;;;;;;;;13.97;78.65;101441.09;5058069;28;20280;-82
2022/10/19 06:42:38;;;;;;;;;;;;;;;14.29;77.92;101433.56;5061872;28;19916;-83
2022/10/19 06:45:22;;;;;;;;;;;;;;;14.69;76.74;101443.19;5069517;28;19921;-83
2022/10/19 06:48:07;;;;;;;;;;;;;;;14.89;75.93;101453.47;5059417;28;19917;-83
2022/10/19 06:50:55;;;;;;;;;;;;;;;15.30;74.84;101457.53;5061357;28;19917;-82
2022/10/19 06:53:40;;;;;;;;;;;;;;;15.45;74.17;101450.69;5059969;28;19917;-82
2022/10/19 06:56:25;;;;;;;;;;;;;;;15.71;73.83;101454.13;5058096;28;19917;-82
2022/10/19 06:59:11;;;;;;;;;;;;;;;15.98;73.02;101450.09;5061940;28;19916;-82
2022/10/19 07:01:56;;;;;;;;;;;;;;;16.20;71.99;101456.03;5058385;28;19917;-82
2022/10/19 07:04:40;;;;;;;;;;;;;;;16.40;71.92;101462.69;5058735;28;19917;-82
2022/10/19 07:07:25;;;;;;;;;;;;;;;16.34;71.34;101457.72;5062218;28;19921;-83
2022/10/19 07:10:09;;;;;;;;;;;;;;;16.51;71.84;101457.56;5065592;28;20308;-82
2022/10/19 07:12:55;;;;;;;;;;;;;;;16.82;70.82;101457.94;5078243;28;19920;-82
2022/10/19 07:15:39;;;;;;;;;;;;;;;17.00;69.54;101453.06;5076972;28;19916;-82
2022/10/19 07:18:24;;;;;;;;;;;;;;;16.64;70.98;101457.31;5078447;28;19920;-82
2022/10/19 07:21:13;;;;;;;;;;;;;;;16.34;72.68;101453.03;5078243;28;20372;-82
2022/10/19 07:23:57;;;;;;;;;;;;;;;16.64;71.35;101462.81;5082157;28;19916;-81
2022/10/19 07:26:42;;;;;;;;;;;;;;;17.02;69.49;101451.56;5074438;28;19921;-81
2022/10/19 07:29:26;;;;;;;;;;;;;;;16.96;69.54;101458.47;5065637;28;19917;-81
2022/10/19 07:32:11;;;;;;;;;;;;;;;17.16;69.30;101456.78;5075104;28;19917;-81
2022/10/19 07:34:55;;;;;;;;;;;;;;;17.15;69.56;101459.84;5079578;28;19916;-81
2022/10/19 07:37:40;;;;;;;;;;;;;;;17.05;70.16;101464.66;5076923;28;19916;-81
2022/10/19 07:40:25;;;;;;;;;;;;;;;17.21;69.78;101461.25;5077610;28;19917;-81
2022/10/19 07:43:09;;;;;;;;;;;;;;;17.35;68.96;101461.72;5077185;28;19917;-81
2022/10/19 07:45:58;;;;;;;;;;;;;;;17.14;70.38;101463.75;5077129;28;19924;-81
2022/10/19 07:48:43;;;;;;;;;;;;;;;17.08;72.44;101461.22;5076021;28;19920;-81
2022/10/19 07:51:27;;;;;;;;;;;;;;;17.14;71.84;101452.75;5077450;28;19917;-81
2022/10/19 07:54:12;;;;;;;;;;;;;;;17.15;73.02;101459.84;5081162;28;19917;-81
2022/10/19 07:56:57;;;;;;;;;;;;;;;17.23;71.78;101465.25;5080874;28;20399;-81
2022/10/19 07:59:42;;;;;;;;;;;;;;;17.39;71.98;101459.88;5080961;28;20387;-81
2022/10/19 08:02:26;;;;;;;;;;;;;;;17.41;70.99;101463.91;5082284;28;19917;-81
2022/10/19 08:05:11;;;;;;;;;;;;;;;17.60;69.82;101460.59;5081293;28;19916;-81
2022/10/19 08:07:55;;;;;;;;;;;;;;;17.68;69.31;101464.38;5084837;28;19928;-81
2022/10/19 08:10:39;;;;;;;;;;;;;;;17.84;69.13;101463.34;5081011;28;19916;-81
2022/10/19 08:13:24;;;;;;;;;;;;;;;17.83;69.38;101463.66;5081168;28;19920;-81
2022/10/19 08:16:24;;;;;;;;;;;;;;;18.09;68.54;101466.84;5085210;28;19916;-81
2022/10/19 08:19:09;;;;;;;;;;;;;;;18.21;68.48;101466.00;5082346;28;20388;-81
2022/10/19 08:21:54;;;;;;;;;;;;;;;18.69;66.43;101473.34;5080558;28;19916;-81
2022/10/19 08:24:38;;;;;;;;;;;;;;;18.74;65.42;101464.81;5075993;28;19916;-83
2022/10/19 08:27:23;;;;;;;;;;;;;;;18.91;65.17;101458.97;5071498;28;19921;-82
2022/10/19 08:30:08;;;;;;;;;;;;;;;19.14;64.46;101467.47;5073456;28;20388;-81
2022/10/19 08:32:53;;;;;;;;;;;;;;;19.39;63.24;101468.91;5074606;28;19912;-82
2022/10/19 08:35:37;;;;;;;;;;;;;;;19.33;63.98;101464.78;5067806;28;19917;-81
2022/10/19 08:38:22;;;;;;;;;;;;;;;19.17;64.47;101463.97;5068328;28;19916;-82
2022/10/19 08:41:12;;;;;;;;;;;;;;;19.65;63.11;101460.09;5062584;28;20399;-81
2022/10/19 08:44:03;;;;;;;;;;;;;;;19.36;64.10;101461.31;5059839;28;20291;-81
2022/10/19 08:46:53;;;;;;;;;;;;;;;19.18;63.97;101457.31;5059608;28;19921;-81
2022/10/19 08:49:38;;;;;;;;;;;;;;;19.36;63.35;101458.56;5063215;28;19917;-81
2022/10/19 08:52:25;;;;;;;;;;;;;;;19.50;62.66;101447.91;5076071;23;20291;-80
2022/10/19 08:55:13;;;;;;;;;;;;;;;20.05;60.74;101452.34;5044590;28;19920;-80
2022/10/19 08:58:06;;;;;;;;;;;;;;;20.12;60.03;101453.63;5085224;28;19916;-79
2022/10/19 09:00:56;;;;;;;;;;;;;;;20.50;58.70;101459.22;5054470;28;19917;-80
2022/10/19 09:04:00;;;;;;;;;;;;;;;20.11;59.65;101455.63;5057821;28;19917;-81
2022/10/19 09:06:50;;;;;;;;;;;;;;;20.54;57.69;101459.28;5054110;28;19921;-79
2022/10/19 09:09:38;;;;;;;;;;;;;;;20.82;56.76;101457.09;5058503;28;19917;-81
2022/10/19 09:12:36;;;;;;;;;;;;;;;20.84;57.45;101451.97;5068571;28;19917;-82
2022/10/19 09:15:24;;;;;;;;;;;;;;;20.59;57.88;101458.97;5054028;28;19917;-79
2022/10/19 09:18:31;;;;;;;;;;;;;;;20.30;59.08;101457.59;5054408;28;19916;-80
2022/10/19 09:21:19;;;;;;;;;;;;;;;20.39;58.34;101449.91;5053406;28;19921;-79
2022/10/19 09:24:05;;;;;;;;;;;;;;;20.35;58.95;101449.03;5058916;28;19920;-81
2022/10/19 09:26:52;;;;;;;;;;;;;;;20.58;58.08;101452.66;5056935;28;20388;-82
2022/10/19 09:29:39;;;;;;;;;;;;;;;20.54;57.61;101451.00;5057084;28;19920;-81
2022/10/19 09:32:30;;;;;;;;;;;;;;;21.03;56.33;101449.16;5072369;28;19917;-82
2022/10/19 09:35:25;;;;;;;;;;;;;;;20.76;57.68;101453.00;5074655;28;20296;-82
2022/10/19 09:38:11;;;;;;;;;;;;;;;20.69;57.91;101453.66;5071468;28;20319;-82
2022/10/19 09:40:58;;;;;;;;;;;;;;;20.59;57.95;101458.97;5060742;28;19921;-82
2022/10/19 09:43:52;;;;;;;;;;;;;;;20.78;57.21;101453.44;5072910;28;19917;-82
2022/10/19 09:46:53;;;;;;;;;;;;;;;20.97;56.36;101458.94;5056550;28;19921;-82
2022/10/19 09:49:42;;;;;;;;;;;;;;;21.05;56.57;101452.38;5073490;28;19916;-82
2022/10/19 09:52:34;;;;;;;;;;;;;;;21.38;55.78;101450.97;5055426;28;20391;-82
2022/10/19 09:55:23;;;;;;;;;;;;;;;21.53;54.92;101447.28;5060778;28;19916;-81
2022/10/19 09:58:14;;;;;;;;;;;;;;;21.25;56.08;101448.41;5058658;28;19916;-82
2022/10/19 10:00:59;;;;;;;;;;;;;;;21.36;55.35;101447.78;5055881;28;19917;-83
2022/10/19 10:03:48;;;;;;;;;;;;;;;21.59;54.89;101448.53;5060571;28;20376;-81
2022/10/19 10:06:34;;;;;;;;;;;;;;;21.64;55.20;101443.47;5071600;28;19920;-82
2022/10/19 10:09:23;;;;;;;;;;;;;;;21.60;55.08;101456.47;5069689;28;20195;-83
2022/10/19 10:12:07;;;;;;;;;;;;;;;21.98;54.36;101463.81;5070088;28;19917;-82
2022/10/19 10:14:54;;;;;;;;;;;;;;;21.65;55.28;101461.69;5057482;28;19924;-81
2022/10/19 10:17:38;;;;;;;;;;;;;;;21.66;55.13;101462.50;5069525;28;19916;-82
2022/10/19 10:20:23;;;;;;;;;;;;;;;22.04;54.11;101459.53;5054682;28;19936;-82
2022/10/19 10:23:21;;;;;;;;;;;;;;;22.22;53.64;101458.97;5056774;28;19916;-81
2022/10/19 10:26:15;;;;;;;;;;;;;;;22.52;52.81;101459.72;5051561;28;19924;-81
2022/10/19 10:28:59;;;;;;;;;;;;;;;22.35;53.20;101458.34;5045158;28;19920;-84
2022/10/19 10:31:45;;;;;;;;;;;;;;;22.63;52.45;101452.34;5047943;28;19917;-80
2022/10/19 10:34:31;;;;;;;;;;;;;;;22.57;52.10;101451.06;5046884;28;19917;-83
2022/10/19 10:37:19;;;;;;;;;;;;;;;22.36;52.80;101448.03;5053930;28;19921;-83
2022/10/19 10:40:05;;;;;;;;;;;;;;;22.66;52.25;101448.78;5041171;28;19916;-82
2022/10/19 10:42:52;;;;;;;;;;;;;;;22.70;52.24;101440.53;5040926;28;19917;-83
2022/10/19 10:45:42;;;;;;;;;;;;;;;22.62;52.30;101431.31;5057686;28;19917;-85
2022/10/19 10:48:29;;;;;;;;;;;;;;;22.70;52.52;101432.22;5047949;28;19920;-84
2022/10/19 10:51:20;;;;;;;;;;;;;;;23.22;51.39;101431.13;5052496;28;20295;-81
2022/10/19 10:54:13;;;;;;;;;;;;;;;22.79;52.48;101414.13;5045739;28;19921;-81
2022/10/19 10:57:11;;;;;;;;;;;;;;;23.05;51.88;101413.19;5053729;28;19917;-80
2022/10/19 11:00:02;;;;;;;;;;;;;;;23.47;50.89;101409.94;5056684;28;19916;-82
2022/10/19 11:03:06;;;;;;;;;;;;;;;23.15;52.51;101400.56;5052956;28;19917;-80
2022/10/19 11:05:54;;;;;;;;;;;;;;;23.70;51.06;101402.19;5050648;28;19917;-80
2022/10/19 11:08:51;;;;;;;;;;;;;;;23.05;53.23;101393.75;5053301;28;19920;-80
2022/10/19 11:11:39;;;;;;;;;;;;;;;23.16;52.67;101393.84;5045143;28;20056;-81
2022/10/19 11:14:24;;;;;;;;;;;;;;;23.43;51.11;101392.44;5038020;28;19917;-82
2022/10/19 11:17:15;;;;;;;;;;;;;;;23.65;50.56;101382.31;5045172;28;19925;-82
2022/10/19 11:20:00;;;;;;;;;;;;;;;23.97;49.75;101388.84;5035563;28;19916;-82
2022/10/19 11:22:54;;;;;;;;;;;;;;;23.93;49.55;101384.44;5044862;28;19917;-82
2022/10/19 11:25:42;;;;;;;;;;;;;;;23.97;49.46;101385.25;5055256;28;19917;-80
2022/10/19 11:28:45;;;;;;;;;;;;;;;23.80;49.59;101379.22;5054033;28;19925;-80
2022/10/19 11:31:40;;;;;;;;;;;;;;;24.36;48.47;101377.88;5071670;28;19917;-79
2022/10/19 11:34:24;;;;;;;;;;;;;;;24.27;48.77;101375.50;5045578;28;19917;-80
2022/10/19 11:37:24;;;;;;;;;;;;;;;24.11;48.67;101369.44;5047332;28;20204;-81
2022/10/19 11:40:18;;;;;;;;;;;;;;;24.38;47.85;101358.81;5048699;28;19932;-81
2022/10/19 11:43:05;;;;;;;;;;;;;;;24.50;47.99;101358.44;5055430;28;20296;-81
2022/10/19 11:45:58;;;;;;;;;;;;;;;24.75;45.55;101352.91;5060976;28;20299;-81
2022/10/19 11:49:02;;;;;;;;;;;;;;;24.78;45.58;101348.56;5058317;28;20193;-81
2022/10/19 11:52:00;;;;;;;;;;;;;;;25.28;43.54;101339.03;5056619;28;19920;-80
2022/10/19 11:54:58;;;;;;;;;;;;;;;25.17;44.58;101337.44;5056805;28;19916;-82
2022/10/19 11:57:50;;;;;;;;;;;;;;;24.93;45.01;101334.28;5056680;28;19917;-81
2022/10/19 12:00:45;;;;;;;;;;;;;;;25.40;44.05;101330.22;5060052;28;19917;-81
2022/10/19 12:03:49;;;;;;;;;;;;;;;25.85;42.61;101327.75;5051163;28;19928;-79
2022/10/19 12:06:46;;;;;;;;;;;;;;;26.26;41.78;101322.41;5044436;28;20139;-80
2022/10/19 12:09:34;;;;;;;;;;;;;;;27.92;38.35;101320.06;5044008;28;19917;-80
2022/10/19 12:12:21;;;;;;;;;;;;;;;33.97;28.12;101336.91;5064895;28;19917;-80
2022/10/19 12:15:14;;;;;;;;;;;;;;;35.77;24.55;101334.97;5051110;28;19917;-82
2022/10/19 12:18:03;;;;;;;;;;;;;;;38.12;21.75;101341.69;5044112;28;19917;-83
2022/10/19 12:20:54;;;;;;;;;;;;;;;40.51;19.15;101344.53;5044979;28;19916;-83
2022/10/19 12:23:42;;;;;;;;;;;;;;;38.32;20.66;101338.91;5050867;28;20284;-83
2022/10/19 12:26:29;;;;;;;;;;;;;;;38.42;20.83;101334.66;5049326;28;20380;-83
2022/10/19 12:29:20;;;;;;;;;;;;;;;40.71;18.32;101335.06;5053618;28;19917;-83
2022/10/19 12:32:05;;;;;;;;;;;;;;;40.09;18.48;101330.19;5044913;28;19925;-85
2022/10/19 12:34:59;;;;;;;;;;;;;;;37.48;21.08;101310.28;5052624;28;19917;-84
2022/10/19 12:37:46;;;;;;;;;;;;;;;36.70;21.99;101309.47;5048079;28;19920;-83
2022/10/19 12:40:30;;;;;;;;;;;;;;;37.84;20.72;101312.00;5050794;28;19917;-83
2022/10/19 12:43:19;;;;;;;;;;;;;;;38.98;20.09;101306.25;5056905;28;19917;-83
2022/10/19 12:46:22;;;;;;;;;;;;;;;41.82;16.99;101306.84;5055640;28;19924;-82
2022/10/19 12:49:25;;;;;;;;;;;;;;;38.20;19.33;101293.75;5071618;28;19925;-83
2022/10/19 12:52:10;;;;;;;;;;;;;;;38.58;19.56;101298.47;5055191;28;19917;-84
2022/10/19 12:55:08;;;;;;;;;;;;;;;38.68;19.22;101294.19;5059653;28;19916;-83
2022/10/19 12:58:04;;;;;;;;;;;;;;;40.26;17.75;101290.44;5056273;28;20371;-83
2022/10/19 13:01:02;;;;;;;;;;;;;;;41.08;16.77;101285.69;5059403;28;19916;-83
2022/10/19 13:03:49;;;;;;;;;;;;;;;36.65;21.27;101269.66;5055354;28;19925;-83
2022/10/19 13:06:38;;;;;;;;;;;;;;;35.79;22.24;101266.56;5055003;28;19917;-82
2022/10/19 13:09:34;;;;;;;;;;;;;;;37.02;21.00;101265.28;5055008;28;19936;-82
2022/10/19 13:12:22;;;;;;;;;;;;;;;39.58;17.71;101269.13;5068688;28;19917;-81
2022/10/19 13:15:26;;;;;;;;;;;;;;;39.87;17.91;101255.94;5059048;28;19920;-82
2022/10/19 13:18:12;;;;;;;;;;;;;;;36.85;20.31;101258.47;5045522;28;19928;-83
2022/10/19 13:20:57;;;;;;;;;;;;;;;36.91;20.84;101248.03;5068986;28;19917;-83
2022/10/19 13:23:44;;;;;;;;;;;;;;;37.14;21.11;101249.28;5054553;28;19917;-82
2022/10/19 13:26:31;;;;;;;;;;;;;;;38.58;19.21;101247.28;5057141;28;19917;-82
2022/10/19 13:29:23;;;;;;;;;;;;;;;36.65;19.99;101244.16;5054488;28;19917;-83
2022/10/19 13:32:26;;;;;;;;;;;;;;;34.83;22.92;101244.63;5054956;28;19917;-82
2022/10/19 13:35:26;;;;;;;;;;;;;;;38.59;18.87;101240.31;5056148;28;19916;-82
2022/10/19 13:38:17;;;;;;;;;;;;;;;36.01;21.86;101230.31;5054659;28;19931;-82
2022/10/19 13:41:08;;;;;;;;;;;;;;;35.87;22.18;101223.28;5056684;28;19917;-82
2022/10/19 13:44:03;;;;;;;;;;;;;;;34.47;23.44;101217.88;5054493;28;19917;-82
2022/10/19 13:47:06;;;;;;;;;;;;;;;34.84;23.72;101221.56;5048597;28;19942;-81
2022/10/19 13:50:14;;;;;;;;;;;;;;;37.20;20.96;101228.25;5035738;28;19917;-82
2022/10/19 13:52:58;;;;;;;;;;;;;;;38.71;18.71;101231.41;5034170;28;20296;-83
2022/10/19 13:56:05;;;;;;;;;;;;;;;37.41;19.95;101231.19;5036843;28;19917;-80
2022/10/19 13:59:02;;;;;;;;;;;;;;;34.56;24.09;101217.88;5047595;28;19917;-80
2022/10/19 14:01:49;;;;;;;;;;;;;;;35.86;22.47;101218.13;5035610;28;20481;-83
2022/10/19 14:04:33;;;;;;;;;;;;;;;35.77;22.44;101212.47;5034966;28;19917;-83
2022/10/19 14:07:29;;;;;;;;;;;;;;;35.09;22.85;101207.09;5033879;28;19921;-83
2022/10/19 14:10:16;;;;;;;;;;;;;;;33.68;24.72;101205.34;5033805;28;19917;-80
2022/10/19 14:13:01;;;;;;;;;;;;;;;33.69;25.51;101200.50;5034571;28;19917;-86
2022/10/19 14:15:51;;;;;;;;;;;;;;;35.04;23.97;101210.56;5053189;28;19918;-83
2022/10/19 14:18:36;;;;;;;;;;;;;;;35.74;23.26;101207.78;5036172;28;19917;-82
2022/10/19 14:21:28;;;;;;;;;;;;;;;33.45;25.13;101198.16;5033445;28;19917;-82